SCCI/PUQ METAR and TAF weather

Enter ICAO airport designator
Station Type Date Time Source
SCCI METAR 2020/04/06 11:00 UTC NOAA

SCCI 061100Z 32011KT 9999 SCT040 BKN240 08/03 Q1009 NOSIG


Station Type Date Time Source
SCCI Decoded METAR 2020/04/06 11:00 UTC NOAA

Punta Arenas, Chile (SCCI) 53-00S 070-51W 33M
Apr 06, 2020 - 07:00 AM EDT / 2020.04.06 1100 UTC
Wind: from the NW (320 degrees) at 13 MPH (11 KT):0
Visibility: greater than 7 mile(s):0
Sky conditions: mostly cloudy
Temperature: 46 F (8 C)
Dew Point: 37 F (3 C)
Relative Humidity: 70%
Pressure (altimeter): 29.80 in. Hg (1009 hPa)
ob: SCCI 061100Z 32011KT 9999 SCT040 BKN240 08/03 Q1009 NOSIG
cycle: 11

Station Type Date Time Source
SCCI TAF 2020/04/06 12:03 UTC NOAA

TAF SCCI 061035Z 0612/0712 31015G25KT 9999 SCT040 TN07/0612Z TX12/0618Z
BECMG 0612/0614 33020G32KT
TEMPO 0614/0621 32025G39KT
BECMG 0618/0620 FEW040
BECMG 0703/0705 31015KT

Example: see airport list